»·PEaware :: N515ZT KSBA-KSAN

N515ZT :: KSBA-KSAN

FLIGHT INFORMATION

Flight Status: Arrived
Operator: Privately registered:
United States
More flights under this callsign
Pilot: Marty P. (27464)
Aircraft: BEECH AIRCRAFT BARON
(BE58)
More flights by this aircraft type
Origin: KSBA Santa Barbara Mun
United States
Destination: KSAN San Diego Intl-Lindbergh
United States
More flights between these airports :: More routes between these airports
Route: SXC OCN
File this flight plan on PilotEdge
Remarks:
Altitude:
(Current/Filed)
13,500ft
Speed:
(Current/Filed)
200kts
Departed: 01-Feb-20 09:55 PM
Arrived: 01-Feb-20 10:56 PM
Distance/Time
Traveled:
166nm/1:01
Distance/Time
To Go:
Arrived

Flight Plot

Page will automatically refresh every two minutes.

Flight plan parsing failed; only flown route is shown


Map Options




Map Legend


Flown Route
Filed Route
Departure Airport
Arrival Airport
Navaid (VOR, NDB)
Fix

Horizontal Profiles

Position Reports

Time Latitude Longitude Heading Altitude Ground
Speed
01-Feb-20 21:44 34.432566 -119.835098 71 14ft 0kts
01-Feb-20 21:45 34.432566 -119.835098 71 14ft 0kts
01-Feb-20 21:46 34.432566 -119.835098 71 14ft 0kts
01-Feb-20 21:47 34.432566 -119.835098 71 14ft 0kts
01-Feb-20 21:48 34.432566 -119.835098 71 14ft 0kts
01-Feb-20 21:49 34.432566 -119.835098 71 14ft 0kts
01-Feb-20 21:50 34.432566 -119.835098 71 14ft 0kts
01-Feb-20 21:51 34.432457 -119.835141 251 14ft 0kts
01-Feb-20 21:52 34.431499 -119.837117 249 14ft 11kts
01-Feb-20 21:53 34.430726 -119.839701 247 14ft 0kts
01-Feb-20 21:54 34.428624 -119.839688 166 14ft 61kts
01-Feb-20 21:55 34.394589 -119.830296 166 499ft 152kts
01-Feb-20 21:56 34.353096 -119.819611 166 1453ft 156kts
01-Feb-20 21:57 34.306096 -119.806725 154 1601ft 177kts
01-Feb-20 21:58 34.287117 -119.759965 100 2572ft 153kts
01-Feb-20 21:59 34.278905 -119.710239 100 3439ft 148kts
01-Feb-20 22:00 34.270993 -119.662426 100 4384ft 144kts
01-Feb-20 22:01 34.259829 -119.615420 121 5315ft 151kts
01-Feb-20 22:02 34.232822 -119.575648 129 6248ft 157kts
01-Feb-20 22:03 34.203794 -119.535884 130 7067ft 158kts
01-Feb-20 22:04 34.174888 -119.496364 129 7969ft 152kts
01-Feb-20 22:05 34.147626 -119.459123 129 8951ft 144kts
01-Feb-20 22:06 34.121714 -119.423760 129 9916ft 140kts
01-Feb-20 22:07 34.096346 -119.389163 129 10880ft 134kts
01-Feb-20 22:08 34.071668 -119.355524 129 11827ft 134kts
01-Feb-20 22:09 34.048583 -119.324109 128 12998ft 111kts
01-Feb-20 22:10 34.026862 -119.294487 129 13543ft 140kts
01-Feb-20 22:11 33.997184 -119.254299 130 13523ft 174kts
01-Feb-20 22:12 33.963814 -119.209082 130 13519ft 185kts
01-Feb-20 22:13 33.929411 -119.162468 131 13517ft 186kts
01-Feb-20 22:14 33.894787 -119.115650 131 13517ft 187kts
01-Feb-20 22:15 33.860293 -119.069049 131 13517ft 187kts
01-Feb-20 22:16 33.825618 -119.022271 131 13516ft 187kts
01-Feb-20 22:17 33.790985 -118.975614 130 13512ft 187kts
01-Feb-20 22:18 33.756434 -118.929120 130 13509ft 186kts
01-Feb-20 22:19 33.721889 -118.882697 130 13511ft 186kts
01-Feb-20 22:20 33.687214 -118.836159 129 13517ft 186kts
01-Feb-20 22:21 33.652347 -118.789421 129 13527ft 187kts
01-Feb-20 22:22 33.617682 -118.743003 129 13537ft 187kts
01-Feb-20 22:23 33.582747 -118.696299 129 13544ft 187kts
01-Feb-20 22:24 33.547925 -118.649806 129 13544ft 188kts
01-Feb-20 22:25 33.512956 -118.603174 129 13544ft 188kts
01-Feb-20 22:26 33.477946 -118.556553 129 13544ft 188kts
01-Feb-20 22:27 33.442950 -118.510011 129 13543ft 188kts
01-Feb-20 22:28 33.408010 -118.463605 129 13543ft 188kts
01-Feb-20 22:29 33.377414 -118.414178 105 13545ft 185kts
01-Feb-20 22:30 33.366822 -118.353991 98 13543ft 184kts
01-Feb-20 22:31 33.358952 -118.296074 98 13435ft 191kts
01-Feb-20 22:32 33.350091 -118.228793 98 12413ft 216kts
01-Feb-20 22:33 33.340552 -118.156634 98 11303ft 221kts
01-Feb-20 22:34 33.330919 -118.083918 97 10236ft 222kts
01-Feb-20 22:35 33.321182 -118.010699 97 9198ft 223kts
01-Feb-20 22:36 33.311378 -117.937333 97 8201ft 225kts
01-Feb-20 22:37 33.301521 -117.863861 97 7228ft 222kts
01-Feb-20 22:38 33.291771 -117.791589 98 6436ft 219kts
01-Feb-20 22:39 33.281993 -117.719489 98 5649ft 221kts
01-Feb-20 22:40 33.272501 -117.649592 98 5516ft 205kts
01-Feb-20 22:41 33.263360 -117.582760 98 5517ft 203kts
01-Feb-20 22:42 33.254247 -117.516376 98 5517ft 202kts
01-Feb-20 22:43 33.245108 -117.450148 98 5516ft 201kts
01-Feb-20 22:44 33.205446 -117.404296 152 4993ft 223kts
01-Feb-20 22:45 33.147867 -117.375804 157 3882ft 218kts
01-Feb-20 22:46 33.093284 -117.351148 157 3504ft 204kts
01-Feb-20 22:47 33.040749 -117.327487 158 3506ft 203kts
01-Feb-20 22:48 32.987960 -117.303731 158 3506ft 203kts
01-Feb-20 22:49 32.934866 -117.279866 158 3506ft 204kts
01-Feb-20 22:50 32.881651 -117.255978 158 3505ft 205kts
01-Feb-20 22:51 32.828747 -117.232270 158 3294ft 215kts
01-Feb-20 22:52 32.773133 -117.205687 144 2128ft 213kts
01-Feb-20 22:53 32.754157 -117.155563 100 1371ft 159kts
01-Feb-20 22:55 32.729162 -117.169803 272 539ft 138kts
01-Feb-20 22:56 32.733739 -117.191225 240 18ft 15kts
01-Feb-20 22:57 32.733635 -117.194265 285 18ft 10kts
01-Feb-20 22:58 32.735081 -117.200252 286 18ft 25kts
01-Feb-20 22:59 32.735625 -117.206559 216 18ft 11kts
01-Feb-20 23:00 32.732852 -117.207992 232 18ft 1kts

Navigation Log

Ident Type
Flight plan parsing failed, navigation log unavailable